Time;durP1;ratioP1;P1;durP2;ratioP2;P2;SDS_P1;SDS_P2;PMS_P1;PMS_P2;Temp;Humidity;BMP_temperature;BMP_pressure;BME280_temperature;BME280_humidity;BME280_pressure;Samples;Min_cycle;Max_cycle;Signal;HPM_P1;HPM_P2
2023/07/14 00:00:08;;;;;;;12.18;8.35;;;;;;;15.48;100.00;101651.53;4942233;29;20048;-96
2023/07/14 00:02:33;;;;;;;11.93;8.30;;;;;;;15.64;100.00;101651.50;4945710;29;20031;-96
2023/07/14 00:05:00;;;;;;;9.10;8.00;;;;;;;15.71;100.00;101654.72;4943827;29;20030;-96
2023/07/14 00:07:25;;;;;;;11.68;7.68;;;;;;;15.73;100.00;101650.69;4945643;29;20024;-96
2023/07/14 00:09:51;;;;;;;11.57;6.77;;;;;;;15.73;100.00;101642.59;4941599;29;20035;-96
2023/07/14 00:12:18;;;;;;;9.93;7.20;;;;;;;15.86;100.00;101654.75;4940938;29;20020;-96
2023/07/14 00:14:44;;;;;;;9.02;6.72;;;;;;;15.83;100.00;101644.47;4941465;29;20027;-96
2023/07/14 00:17:13;;;;;;;10.95;7.00;;;;;;;15.68;100.00;101622.88;4940043;29;20028;-94
2023/07/14 00:19:39;;;;;;;10.45;6.63;;;;;;;15.73;100.00;101655.25;4937408;29;20064;-96
2023/07/14 00:22:14;;;;;;;10.50;7.18;;;;;;;15.56;100.00;101629.34;4940723;29;20027;-93
2023/07/14 00:24:42;;;;;;;10.00;6.90;;;;;;;15.62;100.00;101645.56;4959130;29;20012;-95
2023/07/14 00:27:26;;;;;;;10.05;7.10;;;;;;;15.51;100.00;101628.56;4944943;29;20030;-96
2023/07/14 00:29:52;;;;;;;9.23;5.97;;;;;;;15.50;100.00;101622.34;4951026;29;20081;-96
2023/07/14 00:32:22;;;;;;;10.17;7.20;;;;;;;15.50;100.00;101625.06;4951044;29;20027;-96
2023/07/14 00:34:48;;;;;;;8.07;6.20;;;;;;;15.64;100.00;101646.91;4938344;29;20481;-96
2023/07/14 00:37:14;;;;;;;9.45;6.55;;;;;;;15.64;100.00;101640.69;4939393;29;20116;-96
2023/07/14 00:39:41;;;;;;;10.55;7.40;;;;;;;15.68;100.00;101641.78;4939237;29;20065;-96
2023/07/14 00:42:16;;;;;;;13.18;6.80;;;;;;;15.70;100.00;101626.13;4939916;29;20038;-96
2023/07/14 00:44:43;;;;;;;10.15;6.07;;;;;;;15.75;100.00;101631.47;4937330;29;20059;-96
2023/07/14 00:47:20;;;;;;;7.13;6.05;;;;;;;15.74;100.00;101633.41;4937315;29;20020;-96
2023/07/14 00:49:49;;;;;;;8.80;5.93;;;;;;;15.70;100.00;101628.81;4938520;29;20038;-94
2023/07/14 00:52:25;;;;;;;9.67;5.77;;;;;;;15.69;100.00;101627.19;4938742;29;20700;-94
2023/07/14 00:54:52;;;;;;;7.85;5.70;;;;;;;15.66;100.00;101620.41;4936951;28;20055;-94
2023/07/14 00:57:18;;;;;;;8.73;5.75;;;;;;;15.57;100.00;101609.38;4938400;29;20107;-95
2023/07/14 00:59:44;;;;;;;7.93;5.57;;;;;;;15.59;100.00;101604.50;4937740;29;20047;-95
2023/07/14 01:02:09;;;;;;;8.77;5.82;;;;;;;15.66;100.00;101622.34;4937819;29;20034;-96
2023/07/14 01:04:35;;;;;;;9.80;6.57;;;;;;;15.58;100.00;101616.38;4936437;29;20123;-96
2023/07/14 01:07:01;;;;;;;11.85;6.13;;;;;;;15.51;100.00;101596.13;4939340;29;20024;-96
2023/07/14 01:09:27;;;;;;;7.87;5.60;;;;;;;15.55;100.00;101608.81;4938899;29;20027;-96
2023/07/14 01:11:54;;;;;;;8.48;5.72;;;;;;;15.66;100.00;101617.72;4937311;29;20027;-96
2023/07/14 01:14:29;;;;;;;8.82;6.20;;;;;;;15.68;100.00;101623.66;4938251;29;20020;-96
2023/07/14 01:16:57;;;;;;;7.97;6.03;;;;;;;15.70;100.00;101626.13;4938280;29;20035;-96
2023/07/14 01:19:44;;;;;;;9.77;6.10;;;;;;;15.73;100.00;101615.56;4940585;29;20564;-96
2023/07/14 01:22:19;;;;;;;9.63;6.10;;;;;;;15.69;100.00;101602.88;4941886;29;20311;-96
2023/07/14 01:25:20;;;;;;;8.13;6.05;;;;;;;15.81;100.00;101616.88;4940358;29;20044;-96
2023/07/14 01:27:46;;;;;;;8.77;5.85;;;;;;;15.84;100.00;101616.34;4937980;29;20039;-96
2023/07/14 01:30:14;;;;;;;9.02;6.03;;;;;;;15.84;100.00;101604.72;4937150;29;20082;-96
2023/07/14 01:32:43;;;;;;;9.30;6.53;;;;;;;15.74;100.00;101600.97;4939126;29;20034;-96
2023/07/14 01:35:09;;;;;;;9.80;5.72;;;;;;;15.73;100.00;101612.03;4940240;29;20074;-96
2023/07/14 01:37:37;;;;;;;11.23;6.22;;;;;;;15.65;100.00;101612.59;4938001;29;20677;-95
2023/07/14 01:40:12;;;;;;;8.38;7.22;;;;;;;15.63;100.00;101604.75;4936892;29;20628;-95
2023/07/14 01:42:40;;;;;;;11.57;6.77;;;;;;;15.56;100.00;101599.63;4936570;29;20042;-95
2023/07/14 01:45:11;;;;;;;9.80;7.00;;;;;;;15.59;100.00;101590.19;4956054;29;20291;-96
2023/07/14 01:47:38;;;;;;;10.57;6.90;;;;;;;15.65;100.00;101602.59;4938777;29;20036;-95
2023/07/14 01:50:05;;;;;;;8.93;5.90;;;;;;;15.64;100.00;101600.19;4944749;29;20087;-95
2023/07/14 01:52:33;;;;;;;9.63;6.40;;;;;;;15.66;100.00;101603.41;4951135;29;20023;-95
2023/07/14 01:55:04;;;;;;;8.98;6.28;;;;;;;15.66;100.00;101606.13;4937020;28;20118;-95
2023/07/14 01:57:34;;;;;;;9.18;6.57;;;;;;;15.67;100.00;101600.44;4935297;29;20062;-96
2023/07/14 02:00:05;;;;;;;10.18;6.72;;;;;;;15.66;100.00;101604.22;4937544;29;20373;-94
2023/07/14 02:02:34;;;;;;;9.88;7.03;;;;;;;15.59;100.00;101595.59;4919585;29;20119;-96
2023/07/14 02:05:17;;;;;;;9.50;7.25;;;;;;;15.57;100.00;101601.25;4936082;29;20043;-94
2023/07/14 02:07:43;;;;;;;13.83;7.30;;;;;;;15.43;100.00;101584.00;4943046;29;20086;-95
2023/07/14 02:10:18;;;;;;;9.30;7.20;;;;;;;15.49;100.00;101585.63;4944338;29;20307;-96
2023/07/14 02:12:49;;;;;;;8.70;6.47;;;;;;;15.53;100.00;101591.28;4944161;29;20036;-95
2023/07/14 02:15:23;;;;;;;11.15;7.15;;;;;;;15.39;100.00;101572.13;4921457;29;20031;-94
2023/07/14 02:17:49;;;;;;;10.85;7.60;;;;;;;15.38;100.00;101565.09;4934735;29;20030;-96
2023/07/14 02:20:20;;;;;;;9.32;6.50;;;;;;;15.36;100.00;101568.09;4936660;29;20028;-95
2023/07/14 02:22:49;;;;;;;10.33;6.70;;;;;;;15.28;100.00;101574.00;4936220;29;20032;-96
2023/07/14 02:25:17;;;;;;;10.07;6.77;;;;;;;15.27;100.00;101581.31;4938152;29;20279;-95
2023/07/14 02:27:42;;;;;;;10.60;6.78;;;;;;;15.21;100.00;101587.00;4937061;29;20031;-95
2023/07/14 02:30:22;;;;;;;9.23;6.70;;;;;;;15.14;100.00;101593.47;4936146;29;20027;-95
2023/07/14 02:32:56;;;;;;;10.80;7.75;;;;;;;15.01;100.00;101568.91;4936715;29;20023;-94
2023/07/14 02:35:40;;;;;;;9.50;7.05;;;;;;;15.05;100.00;101584.31;4937771;29;20034;-96
2023/07/14 02:38:14;;;;;;;10.93;7.18;;;;;;;15.07;100.00;101582.13;4936093;29;20027;-94
2023/07/14 02:40:52;;;;;;;9.20;7.17;;;;;;;15.02;100.00;101584.84;4937961;29;20087;-95
2023/07/14 02:43:20;;;;;;;12.10;7.27;;;;;;;14.95;100.00;101578.88;4936633;29;20283;-95
2023/07/14 02:45:56;;;;;;;10.43;7.38;;;;;;;14.84;100.00;101581.59;4936652;29;20027;-96
2023/07/14 02:48:34;;;;;;;8.18;6.78;;;;;;;14.75;100.00;101590.47;4936814;29;20035;-95
2023/07/14 02:51:00;;;;;;;10.43;7.13;;;;;;;14.56;100.00;101582.84;4936588;29;20111;-96
2023/07/14 02:53:25;;;;;;;10.63;7.13;;;;;;;14.53;100.00;101589.56;4936655;29;20447;-95
2023/07/14 02:55:51;;;;;;;11.33;7.80;;;;;;;14.47;100.00;101584.44;4935283;29;20047;-95
2023/07/14 02:58:17;;;;;;;11.63;7.93;;;;;;;14.44;100.00;101590.34;4936565;29;20032;-96
2023/07/14 03:00:43;;;;;;;12.95;8.38;;;;;;;14.42;100.00;101582.53;4936487;29;20030;-95
2023/07/14 03:03:09;;;;;;;11.13;8.00;;;;;;;14.48;100.00;101586.88;4939408;29;20103;-96
2023/07/14 03:05:34;;;;;;;9.53;7.97;;;;;;;14.49;100.00;101580.41;4955432;29;20480;-95
2023/07/14 03:08:00;;;;;;;9.65;7.60;;;;;;;14.49;100.00;101568.81;4938377;29;20063;-95
2023/07/14 03:10:26;;;;;;;13.30;8.00;;;;;;;14.59;100.00;101576.09;4949510;29;20079;-95
2023/07/14 03:12:53;;;;;;;12.73;8.13;;;;;;;14.67;100.00;101581.00;4952711;29;20480;-95
2023/07/14 03:15:19;;;;;;;8.77;7.53;;;;;;;14.80;100.00;101579.66;4938931;29;20510;-95
2023/07/14 03:17:44;;;;;;;11.10;8.55;;;;;;;14.80;100.00;101567.00;4939900;29;20055;-95
2023/07/14 03:20:11;;;;;;;10.53;7.30;;;;;;;14.96;100.00;101572.41;4938756;29;20484;-95
2023/07/14 03:22:36;;;;;;;8.70;7.78;;;;;;;15.06;100.00;101568.91;4938730;29;20118;-95
2023/07/14 03:25:02;;;;;;;9.83;7.40;;;;;;;15.09;100.00;101571.06;4938679;28;20047;-96
2023/07/14 03:27:28;;;;;;;11.93;7.27;;;;;;;15.13;100.00;101570.25;4939880;29;20275;-96
2023/07/14 03:29:55;;;;;;;12.82;7.82;;;;;;;15.11;100.00;101563.50;4940016;29;20032;-95
2023/07/14 03:32:21;;;;;;;9.48;7.55;;;;;;;15.20;100.00;101569.97;4939006;29;20395;-95
2023/07/14 03:34:46;;;;;;;10.93;7.33;;;;;;;15.18;100.00;101563.25;4940148;29;20024;-95
2023/07/14 03:37:12;;;;;;;11.45;7.10;;;;;;;15.21;100.00;101571.59;4939138;29;20391;-96
2023/07/14 03:39:37;;;;;;;9.73;6.87;;;;;;;15.20;100.00;101569.97;4938170;29;20036;-95
2023/07/14 03:42:03;;;;;;;7.00;6.15;;;;;;;15.18;100.00;101560.53;4938581;29;20044;-96
2023/07/14 03:44:28;;;;;;;10.03;6.50;;;;;;;15.19;100.00;101559.47;4939489;29;20034;-96
2023/07/14 03:46:54;;;;;;;8.93;6.22;;;;;;;15.16;100.00;101551.91;4939742;29;20082;-95
2023/07/14 03:49:19;;;;;;;8.33;5.87;;;;;;;15.11;100.00;101539.22;4940724;29;20043;-95
2023/07/14 03:51:45;;;;;;;8.37;6.10;;;;;;;15.18;100.00;101547.84;4942188;29;20035;-96
2023/07/14 03:54:11;;;;;;;9.90;6.22;;;;;;;15.13;100.00;101545.97;4953103;29;20470;-96
2023/07/14 03:56:37;;;;;;;8.70;6.00;;;;;;;15.14;100.00;101544.88;4958067;29;20024;-95
2023/07/14 03:59:03;;;;;;;6.20;5.30;;;;;;;15.07;100.00;101535.44;4943826;29;20034;-96
2023/07/14 04:01:29;;;;;;;8.98;5.30;;;;;;;15.13;100.00;101558.66;4940374;29;20113;-96
2023/07/14 04:03:56;;;;;;;7.15;5.70;;;;;;;15.14;100.00;101554.88;4940153;29;20024;-95
2023/07/14 04:06:21;;;;;;;7.20;5.80;;;;;;;15.13;100.00;101545.16;4938513;29;20034;-96
2023/07/14 04:13:57;;;;;;;8.25;6.35;;;;;;;15.17;100.00;101531.94;5131611;23;20116;-95
2023/07/14 04:16:23;;;;;;;6.23;5.63;;;;;;;15.29;100.00;101545.94;4945445;29;20035;-94
2023/07/14 04:18:49;;;;;;;7.15;5.88;;;;;;;15.34;100.00;101550.53;4944552;29;20055;-95
2023/07/14 04:21:15;;;;;;;6.30;5.70;;;;;;;15.25;100.00;101540.28;4942127;29;20040;-95
2023/07/14 04:23:41;;;;;;;6.77;5.30;;;;;;;15.29;100.00;101546.75;4942161;29;20059;-96
2023/07/14 04:26:08;;;;;;;6.93;5.03;;;;;;;15.35;100.00;101546.72;4955886;29;20030;-96
2023/07/14 04:28:35;;;;;;;6.95;5.20;;;;;;;15.27;100.00;101538.13;4948370;29;20036;-96
2023/07/14 04:31:01;;;;;;;6.30;5.18;;;;;;;15.41;100.00;101545.66;4944991;29;20039;-96
2023/07/14 04:40:55;;;;;;;8.27;4.90;;;;;;;15.59;100.00;101542.38;5209132;23;20683;-95
2023/07/14 04:43:21;;;;;;;6.60;4.40;;;;;;;15.58;100.00;101543.47;4936511;29;20112;-93
2023/07/14 04:45:50;;;;;;;6.07;4.63;;;;;;;15.50;100.00;101538.63;4936782;29;20055;-95
2023/07/14 04:48:18;;;;;;;7.05;4.10;;;;;;;15.47;100.00;101541.88;4936852;29;20492;-96
2023/07/14 04:50:46;;;;;;;7.38;4.10;;;;;;;15.42;100.00;101547.28;4939798;29;20024;-95
2023/07/14 04:53:13;;;;;;;4.60;4.10;;;;;;;15.55;100.00;101549.41;4939620;29;20024;-96
2023/07/14 04:55:40;;;;;;;6.30;3.78;;;;;;;15.59;100.00;101542.38;4937583;29;20036;-96
2023/07/14 04:58:06;;;;;;;7.07;3.97;;;;;;;15.57;100.00;101552.63;4939665;29;20032;-96
2023/07/14 05:00:33;;;;;;;6.07;4.10;;;;;;;15.41;100.00;101534.84;4938848;29;20287;-96
2023/07/14 05:02:59;;;;;;;6.45;4.10;;;;;;;15.55;100.00;101551.31;4939704;29;20107;-96
2023/07/14 05:05:26;;;;;;;8.77;4.13;;;;;;;15.51;100.00;101551.06;4956925;23;20091;-96
2023/07/14 05:07:52;;;;;;;6.20;4.10;;;;;;;15.49;100.00;101544.28;4950970;29;20031;-96
2023/07/14 05:10:20;;;;;;;5.50;4.40;;;;;;;15.48;100.00;101548.06;4960793;29;20267;-96
2023/07/14 05:12:49;;;;;;;7.70;4.20;;;;;;;15.65;100.00;101542.38;4960563;29;20020;-96
2023/07/14 05:15:14;;;;;;;4.53;4.13;;;;;;;15.91;100.00;101529.59;4960675;29;20036;-95
2023/07/14 05:17:41;;;;;;;6.63;4.30;;;;;;;16.67;100.00;101532.13;4959473;29;20026;-96
2023/07/14 05:20:10;;;;;;;7.03;4.13;;;;;;;17.54;100.00;101514.31;5001721;23;20038;-96
2023/07/14 05:22:37;;;;;;;6.87;4.00;;;;;;;18.59;100.00;101542.53;5073177;23;20375;-96
2023/07/14 05:25:04;;;;;;;9.20;4.18;;;;;;;19.74;100.00;101544.88;4923082;29;20032;-96
2023/07/14 05:27:30;;;;;;;9.00;3.88;;;;;;;20.64;95.69;101545.44;4940256;29;20024;-96
2023/07/14 07:57:56;;;;;;;8.63;2.23;;;;;;;22.28;60.43;101498.44;5954223;23;21257;-96
2023/07/14 08:39:08;;;;;;;3.42;1.92;;;;;;;22.13;59.56;101483.34;4931252;29;20076;-96
2023/07/14 08:41:45;;;;;;;4.90;2.13;;;;;;;21.86;61.60;101449.81;4934235;29;20016;-95
2023/07/14 08:44:51;;;;;;;4.03;2.20;;;;;;;22.28;61.05;101483.97;4927575;29;20030;-96
2023/07/14 08:48:10;;;;;;;3.60;2.13;;;;;;;22.92;62.99;101480.53;4937936;29;20039;-96
2023/07/14 08:50:54;;;;;;;3.97;2.28;;;;;;;23.52;60.42;101449.75;4938825;29;20044;-96
2023/07/14 08:54:03;;;;;;;5.63;2.42;;;;;;;23.99;56.39;101446.84;4942465;29;20016;-96
2023/07/14 08:59:45;;;;;;;3.03;2.30;;;;;;;23.79;53.98;101433.94;5499282;23;20059;-96
2023/07/14 09:03:03;;;;;;;4.17;2.57;;;;;;;23.41;55.71;101432.91;4956877;29;20275;-95
2023/07/14 09:08:34;;;;;;;7.30;2.60;;;;;;;24.04;53.15;101457.59;4954309;29;20038;-96
2023/07/14 09:14:21;;;;;;;2.90;2.22;;;;;;;24.20;54.45;101456.97;4975510;23;20060;-96
2023/07/14 09:22:58;;;;;;;4.22;2.72;;;;;;;23.72;56.18;101399.72;5072694;23;20047;-96
2023/07/14 09:28:49;;;;;;;4.23;2.47;;;;;;;24.37;56.53;101423.16;5242579;23;20144;-96
2023/07/14 09:51:07;;;;;;;6.07;2.72;;;;;;;26.93;47.12;101403.59;5468048;23;20060;-96
2023/07/14 09:53:44;;;;;;;3.63;2.50;;;;;;;26.17;45.80;101386.00;4954298;29;20020;-96
2023/07/14 09:57:05;;;;;;;3.97;2.50;;;;;;;25.69;49.22;101410.53;4940349;29;20036;-96
2023/07/14 10:00:21;;;;;;;5.97;2.90;;;;;;;25.96;49.83;101410.88;4957462;29;20295;-96
2023/07/14 10:03:36;;;;;;;6.30;2.90;;;;;;;25.88;47.75;101376.16;4954751;29;20039;-96
2023/07/14 10:09:29;;;;;;;8.00;2.92;;;;;;;25.96;48.56;101367.78;4954073;29;20128;-96
2023/07/14 10:15:22;;;;;;;4.53;2.47;;;;;;;26.04;47.27;101359.72;4934335;28;20063;-96
2023/07/14 11:51:04;;;;;;;4.88;2.78;;;;;;;28.56;40.04;101204.56;4954733;28;20414;-96
2023/07/14 11:53:33;;;;;;;3.65;2.50;;;;;;;29.16;38.95;101219.50;4924891;29;20043;-96
2023/07/14 11:56:22;;;;;;;3.88;2.80;;;;;;;29.20;37.64;101210.47;4934564;29;20032;-96
2023/07/14 11:59:04;;;;;;;5.85;2.67;;;;;;;28.81;37.62;101219.84;4936936;29;20047;-96
2023/07/14 12:01:30;;;;;;;3.67;2.30;;;;;;;28.93;37.91;101188.50;4905423;29;20032;-96
2023/07/14 12:04:25;;;;;;;6.27;2.73;;;;;;;29.09;38.61;101196.56;4931533;29;20067;-96
2023/07/14 12:07:29;;;;;;;4.40;2.80;;;;;;;28.93;39.09;101192.06;4930986;29;20048;-96
2023/07/14 12:10:04;;;;;;;4.90;2.45;;;;;;;28.64;39.32;101188.91;4939103;29;20048;-96
2023/07/14 12:12:40;;;;;;;3.92;2.33;;;;;;;28.54;39.14;101173.81;4934796;29;20100;-96
2023/07/14 12:16:24;;;;;;;4.22;2.90;;;;;;;29.45;39.92;101219.06;4941497;29;20059;-96
2023/07/14 12:19:22;;;;;;;4.57;2.90;;;;;;;29.45;39.51;101180.41;4905146;29;20040;-96
2023/07/14 12:32:46;;;;;;;4.53;3.10;;;;;;;29.21;38.74;101151.38;4955565;26;20039;-96
2023/07/14 12:35:55;;;;;;;5.22;2.67;;;;;;;29.19;38.76;101181.31;4941776;29;20063;-96
2023/07/14 12:38:47;;;;;;;4.35;2.60;;;;;;;29.29;38.46;101153.81;4941092;29;20040;-96
2023/07/14 12:46:57;;;;;;;4.53;2.20;;;;;;;30.71;36.28;101127.19;5424202;23;20043;-96
2023/07/14 12:52:42;;;;;;;4.63;2.78;;;;;;;31.14;36.66;101155.00;4976444;23;20052;-96
2023/07/14 12:55:25;;;;;;;4.40;2.72;;;;;;;30.92;36.14;101140.31;4962104;29;20099;-96
2023/07/14 14:33:28;;;;;;;5.78;3.50;;;;;;;28.76;35.87;100959.09;5770148;23;21153;-96
2023/07/14 14:36:26;;;;;;;4.55;3.33;;;;;;;28.90;36.62;100943.81;4961794;29;20076;-96
2023/07/14 14:54:44;;;;;;;6.05;3.40;;;;;;;28.67;35.88;100903.44;5916754;23;20018;-91
2023/07/14 16:01:37;;;;;;;4.75;3.60;;;;;;;28.45;38.77;100775.72;4951097;29;20058;-96
2023/07/14 16:04:32;;;;;;;4.85;3.38;;;;;;;28.21;38.79;100737.38;4971907;28;20088;-96
2023/07/14 16:10:17;;;;;;;4.40;3.20;;;;;;;28.08;38.37;100741.56;5343916;23;20040;-96
2023/07/14 16:12:50;;;;;;;4.18;3.60;;;;;;;27.70;37.87;100725.09;5051117;23;20588;-96
2023/07/14 16:19:06;;;;;;;7.90;3.73;;;;;;;27.74;37.48;100741.66;4941161;29;20059;-96
2023/07/14 16:32:04;;;;;;;4.25;3.20;;;;;;;27.43;38.13;100705.13;4989074;23;20056;-96
2023/07/14 16:35:13;;;;;;;6.95;3.22;;;;;;;27.59;38.48;100686.47;4961783;29;20042;-96
2023/07/14 16:38:03;;;;;;;6.85;3.50;;;;;;;27.79;39.26;100678.00;4966821;29;20042;-96
2023/07/14 16:41:20;;;;;;;4.70;3.22;;;;;;;28.00;38.12;100660.06;4959312;29;20134;-96
2023/07/14 16:43:57;;;;;;;4.43;3.00;;;;;;;28.06;37.20;100666.81;4959689;29;20459;-96
2023/07/14 16:46:56;;;;;;;5.60;3.20;;;;;;;28.01;37.81;100656.16;4958671;29;20343;-96
2023/07/14 16:50:22;;;;;;;8.13;3.80;;;;;;;28.31;38.24;100699.25;4961216;29;20034;-96
2023/07/14 17:00:56;;;;;;;5.38;2.92;;;;;;;28.42;37.65;100692.66;4955606;29;20038;-96
2023/07/14 17:03:39;;;;;;;5.25;2.70;;;;;;;28.50;36.78;100687.19;4961623;29;20102;-96
2023/07/14 17:06:39;;;;;;;6.65;3.30;;;;;;;28.33;36.94;100683.13;4942114;29;20083;-96
2023/07/14 17:09:32;;;;;;;4.18;3.00;;;;;;;28.17;37.79;100644.88;4981595;23;20024;-96
2023/07/14 17:12:25;;;;;;;6.87;3.17;;;;;;;28.02;36.83;100655.78;4936320;29;20031;-96
2023/07/14 17:14:57;;;;;;;5.50;3.27;;;;;;;28.32;37.21;100626.47;4937840;29;20264;-96
2023/07/14 17:17:23;;;;;;;7.05;3.17;;;;;;;28.85;36.95;100634.22;4909554;29;20032;-96
2023/07/14 17:20:00;;;;;;;5.30;3.08;;;;;;;29.22;34.90;100634.31;4940527;29;20383;-96
2023/07/14 17:22:32;;;;;;;6.70;3.58;;;;;;;29.38;35.76;100626.50;4923872;29;20056;-96
2023/07/14 17:25:13;;;;;;;5.30;3.10;;;;;;;29.59;35.26;100630.44;4940849;29;20035;-96
2023/07/14 17:34:27;;;;;;;7.05;3.50;;;;;;;29.94;34.92;100631.63;5187297;23;21460;-96
2023/07/14 17:37:18;;;;;;;5.57;3.37;;;;;;;29.53;35.06;100613.50;4959240;29;20079;-96
2023/07/14 17:39:45;;;;;;;5.55;3.50;;;;;;;29.04;35.49;100637.81;5116479;23;20039;-96
2023/07/14 17:42:22;;;;;;;4.35;3.10;;;;;;;28.42;36.71;100603.72;4958702;29;20016;-96
2023/07/14 17:44:57;;;;;;;6.20;2.97;;;;;;;28.14;36.82;100607.88;4941818;29;20079;-96
2023/07/14 17:47:38;;;;;;;4.65;3.00;;;;;;;27.77;38.07;100597.75;4939887;29;20067;-96
2023/07/14 17:51:02;;;;;;;7.35;3.00;;;;;;;27.80;38.62;100630.03;4941087;29;20594;-96
2023/07/14 17:54:41;;;;;;;3.10;2.70;;;;;;;27.63;39.69;100609.47;4911914;29;20052;-96
2023/07/14 17:57:21;;;;;;;4.87;2.80;;;;;;;27.74;38.70;100593.81;4914884;29;20288;-96
2023/07/14 17:59:53;;;;;;;7.85;3.22;;;;;;;27.75;39.07;100589.91;4936864;29;20036;-96
2023/07/14 18:02:35;;;;;;;4.35;2.67;;;;;;;27.52;39.38;100581.84;4938141;29;20038;-96
2023/07/14 18:05:01;;;;;;;7.03;3.40;;;;;;;27.47;40.58;100623.47;4936707;29;20052;-96
2023/07/14 18:07:41;;;;;;;5.90;3.33;;;;;;;27.12;40.89;100622.69;4934599;29;20036;-96
2023/07/14 18:10:10;;;;;;;7.18;3.22;;;;;;;26.87;41.73;100609.47;4937325;29;20046;-96
2023/07/14 18:12:39;;;;;;;6.28;3.10;;;;;;;26.42;42.28;100581.84;4955261;29;20012;-96
2023/07/14 18:15:31;;;;;;;6.32;3.10;;;;;;;26.31;43.06;100572.66;4932810;29;20032;-96
2023/07/14 18:18:00;;;;;;;5.97;3.00;;;;;;;26.13;42.85;100561.44;4923602;29;20028;-96
2023/07/14 18:20:30;;;;;;;6.07;2.77;;;;;;;25.99;42.69;100557.31;4923134;29;20296;-96
2023/07/14 18:22:56;;;;;;;5.55;2.70;;;;;;;26.25;44.18;100607.88;4923266;29;20032;-96
2023/07/14 18:25:30;;;;;;;4.93;2.92;;;;;;;25.92;44.56;100576.41;4923581;29;20040;-96
2023/07/14 18:27:57;;;;;;;4.07;2.55;;;;;;;26.13;44.16;100597.91;4921561;29;20451;-95
2023/07/14 18:30:33;;;;;;;4.75;3.10;;;;;;;26.14;44.70;100596.75;4923458;29;20072;-96
2023/07/14 18:32:58;;;;;;;3.60;2.53;;;;;;;26.07;43.85;100593.88;4919810;29;20400;-96
2023/07/14 18:35:31;;;;;;;7.17;3.03;;;;;;;25.87;43.24;100595.13;4918981;29;20024;-96
2023/07/14 18:38:03;;;;;;;3.58;2.60;;;;;;;25.70;43.95;100594.50;4917669;29;20035;-96
2023/07/14 18:40:48;;;;;;;5.28;2.47;;;;;;;25.63;44.63;100591.63;4919658;29;20051;-94
2023/07/14 18:43:34;;;;;;;5.53;2.42;;;;;;;25.53;45.39;100584.78;4923384;29;20055;-96
2023/07/14 18:46:02;;;;;;;4.72;2.10;;;;;;;25.42;45.31;100579.13;4920661;29;20051;-96
2023/07/14 18:48:29;;;;;;;5.72;2.40;;;;;;;25.41;46.57;100583.00;4917934;29;20608;-96
2023/07/14 18:51:17;;;;;;;6.28;2.40;;;;;;;25.38;45.76;100583.75;4919777;29;20099;-96
2023/07/14 18:53:47;;;;;;;3.40;2.23;;;;;;;25.15;46.05;100568.06;4917113;29;20480;-95
2023/07/14 18:56:12;;;;;;;4.90;2.40;;;;;;;25.14;46.54;100574.72;4917678;29;20342;-94
2023/07/14 18:58:39;;;;;;;5.60;2.25;;;;;;;25.13;48.14;100564.09;4916725;29;20493;-95
2023/07/14 19:01:05;;;;;;;4.55;2.40;;;;;;;25.01;47.89;100545.88;4919218;29;20025;-95
2023/07/14 19:03:34;;;;;;;7.67;3.30;;;;;;;25.00;47.87;100567.00;4923836;29;20237;-95
2023/07/14 19:06:01;;;;;;;6.70;3.17;;;;;;;24.95;47.73;100559.06;4936002;29;20284;-95
2023/07/14 19:08:26;;;;;;;9.25;3.58;;;;;;;24.88;49.15;100550.75;4920292;29;20080;-95
2023/07/14 19:10:58;;;;;;;6.32;3.08;;;;;;;24.81;49.02;100548.66;4929536;29;20012;-94
2023/07/14 19:13:25;;;;;;;4.40;3.00;;;;;;;24.64;50.65;100536.97;4926902;29;20032;-95
2023/07/14 19:15:51;;;;;;;7.35;2.67;;;;;;;24.59;50.82;100529.03;4920918;29;20072;-95
2023/07/14 19:18:22;;;;;;;6.70;2.83;;;;;;;24.45;50.95;100520.53;4920801;29;20040;-94
2023/07/14 19:20:57;;;;;;;6.30;2.40;;;;;;;24.45;50.23;100521.31;4924441;29;20356;-94
2023/07/14 19:23:25;;;;;;;7.00;2.60;;;;;;;24.32;51.53;100523.41;4926514;29;20043;-95
2023/07/14 19:25:53;;;;;;;4.97;2.70;;;;;;;24.18;52.03;100506.69;4926756;29;20054;-94
2023/07/14 19:28:21;;;;;;;5.45;2.60;;;;;;;24.07;52.62;100508.41;4928555;29;20504;-94
2023/07/14 19:30:49;;;;;;;7.53;2.78;;;;;;;23.94;53.02;100518.63;4929097;29;20456;-95
2023/07/14 19:33:17;;;;;;;5.28;2.33;;;;;;;23.75;52.90;100515.47;4929572;29;20020;-94
2023/07/14 19:35:43;;;;;;;6.10;3.00;;;;;;;23.70;54.69;100515.78;4922916;29;20024;-95
2023/07/14 19:38:11;;;;;;;8.97;3.73;;;;;;;23.60;54.22;100510.84;4917563;29;20539;-95
2023/07/14 19:40:37;;;;;;;6.03;3.10;;;;;;;23.54;54.34;100515.00;4917096;29;20495;-95
2023/07/14 19:43:20;;;;;;;8.15;3.85;;;;;;;23.43;54.46;100509.28;4917001;29;20028;-96
2023/07/14 19:45:46;;;;;;;6.43;4.10;;;;;;;23.29;55.75;100512.44;4915433;29;20044;-95
2023/07/14 19:48:13;;;;;;;11.10;3.57;;;;;;;23.16;56.21;100500.75;4917208;29;20520;-96
2023/07/14 19:50:39;;;;;;;7.30;3.53;;;;;;;23.03;56.30;100504.72;4920181;29;20028;-95
2023/07/14 19:53:18;;;;;;;10.10;3.03;;;;;;;22.96;55.98;100508.06;4920240;29;20035;-95
2023/07/14 19:55:44;;;;;;;6.27;3.00;;;;;;;22.80;57.86;100497.91;4930756;29;20067;-94
2023/07/14 19:58:11;;;;;;;5.97;2.88;;;;;;;22.82;58.39;100506.53;4921329;29;20028;-95
2023/07/14 20:00:39;;;;;;;5.00;2.60;;;;;;;22.65;59.02;100487.72;4920299;29;20039;-95
2023/07/14 20:03:15;;;;;;;7.67;2.70;;;;;;;22.59;59.23;100486.41;4920216;29;20312;-95
2023/07/14 20:05:40;;;;;;;4.68;2.17;;;;;;;22.60;60.61;100486.03;4919783;29;20036;-95
2023/07/14 20:08:10;;;;;;;4.30;2.72;;;;;;;22.67;59.94;100502.63;4918767;29;20484;-95
2023/07/14 20:10:37;;;;;;;6.83;3.00;;;;;;;22.58;60.54;100482.88;4919487;29;20796;-94
2023/07/14 20:13:11;;;;;;;6.32;2.97;;;;;;;22.53;59.71;100481.19;4918370;29;20492;-96
2023/07/14 20:15:37;;;;;;;5.32;3.60;;;;;;;22.50;60.50;100475.63;4919201;29;20028;-95
2023/07/14 20:18:11;;;;;;;5.53;3.47;;;;;;;22.53;60.33;100475.72;4919944;29;20235;-96
2023/07/14 20:20:39;;;;;;;6.93;3.43;;;;;;;22.48;62.35;100486.88;4918623;29;20288;-94
2023/07/14 20:23:11;;;;;;;4.70;3.53;;;;;;;22.43;60.51;100480.88;4923974;29;20027;-95
2023/07/14 20:25:38;;;;;;;9.02;3.60;;;;;;;22.26;62.72;100465.59;4934661;29;20372;-94
2023/07/14 20:28:13;;;;;;;6.13;3.67;;;;;;;22.29;61.04;100475.78;4920266;29;20115;-94
2023/07/14 20:30:38;;;;;;;6.13;3.67;;;;;;;22.17;62.27;100452.88;4935881;29;20079;-95
2023/07/14 20:33:04;;;;;;;5.53;3.30;;;;;;;22.23;63.14;100472.50;4925112;29;20036;-96
2023/07/14 20:35:30;;;;;;;8.80;3.92;;;;;;;22.09;63.54;100462.00;4919198;29;20039;-95
2023/07/14 20:37:55;;;;;;;6.13;3.80;;;;;;;21.92;63.00;100449.41;4919064;29;20032;-95
2023/07/14 20:40:20;;;;;;;7.43;4.00;;;;;;;22.00;63.71;100469.50;4927805;29;20055;-95
2023/07/14 20:42:46;;;;;;;6.53;3.87;;;;;;;21.86;64.18;100448.84;4928050;29;20299;-95
2023/07/14 20:45:16;;;;;;;7.43;3.70;;;;;;;21.98;65.81;100456.22;4930658;29;20369;-95
2023/07/14 20:47:41;;;;;;;9.80;3.75;;;;;;;21.89;65.06;100450.09;4932214;29;20025;-94
2023/07/14 20:50:13;;;;;;;8.55;4.25;;;;;;;21.83;66.48;100454.19;4941776;29;20027;-95
2023/07/14 20:52:46;;;;;;;7.93;3.80;;;;;;;21.83;66.63;100444.09;4923205;29;20096;-95
2023/07/14 20:55:27;;;;;;;6.57;3.90;;;;;;;21.92;65.67;100446.69;4921309;29;20280;-95
2023/07/14 20:57:53;;;;;;;7.72;3.60;;;;;;;21.97;66.20;100445.63;4922467;29;20032;-95
2023/07/14 21:00:22;;;;;;;7.65;3.83;;;;;;;22.04;65.70;100454.03;4922261;29;20032;-94
2023/07/14 21:02:49;;;;;;;5.07;3.83;;;;;;;22.05;65.68;100439.28;4920067;29;20052;-95
2023/07/14 21:05:15;;;;;;;7.40;4.10;;;;;;;21.97;73.44;100429.28;4922697;29;20031;-96
2023/07/14 21:07:41;;;;;;;5.57;3.72;;;;;;;21.70;79.17;100437.06;4922576;29;20532;-96
2023/07/14 21:10:10;;;;;;;6.40;3.80;;;;;;;21.26;77.79;100421.28;4921908;29;20040;-96
2023/07/14 21:12:36;;;;;;;8.55;4.25;;;;;;;21.06;80.85;100421.06;4921923;29;20033;-96